createdAt,value
2017-09-29T00:01:15.337Z,16.28
2017-09-29T00:06:11.485Z,16.20
2017-09-29T00:11:08.269Z,16.10
2017-09-29T00:16:04.064Z,16.15
2017-09-29T00:21:00.025Z,16.05
2017-09-29T00:25:55.783Z,16.13
2017-09-29T00:30:52.578Z,16.02
2017-09-29T00:35:48.124Z,16.04
2017-09-29T00:40:44.928Z,16.01
2017-09-29T00:45:40.799Z,15.90
2017-09-29T00:50:36.429Z,15.94
2017-09-29T00:55:32.391Z,15.92
2017-09-29T01:00:29.276Z,16.02
2017-09-29T01:05:24.913Z,16.01
2017-09-29T01:10:20.627Z,16.05
2017-09-29T01:15:16.264Z,15.95
2017-09-29T01:20:12.163Z,15.94
2017-09-29T01:25:08.752Z,15.88
2017-09-29T01:30:04.308Z,15.91
2017-09-29T01:35:01.405Z,15.94
2017-09-29T01:39:57.190Z,16.04
2017-09-29T01:44:53.160Z,16.00
2017-09-29T01:49:49.042Z,15.92
2017-09-29T01:54:44.662Z,15.98
2017-09-29T01:59:41.033Z,16.02
2017-09-29T02:04:37.129Z,16.02
2017-09-29T02:09:33.675Z,16.09
2017-09-29T02:14:29.540Z,16.15
2017-09-29T02:19:25.350Z,16.17
2017-09-29T02:24:21.259Z,16.13
2017-09-29T02:29:18.017Z,16.17
2017-09-29T02:34:13.598Z,16.21
2017-09-29T02:39:11.528Z,16.15
2017-09-29T02:44:06.877Z,16.15
2017-09-29T02:49:05.076Z,16.21
2017-09-29T02:54:00.692Z,16.05
2017-09-29T02:58:56.453Z,16.13
2017-09-29T03:03:52.215Z,16.20
2017-09-29T03:08:49.186Z,16.15
2017-09-29T03:13:44.935Z,16.21
2017-09-29T03:18:40.929Z,16.29
2017-09-29T03:23:36.542Z,16.33
2017-09-29T03:28:32.489Z,16.35
2017-09-29T03:33:28.877Z,16.33
2017-09-29T03:38:24.900Z,16.41
2017-09-29T03:43:21.615Z,16.43
2017-09-29T03:48:17.157Z,16.49
2017-09-29T03:53:13.079Z,16.39
2017-09-29T03:58:09.924Z,16.46
2017-09-29T04:03:05.455Z,16.50
2017-09-29T04:08:02.193Z,16.51
2017-09-29T04:12:57.983Z,16.46
2017-09-29T04:17:54.901Z,16.43
2017-09-29T04:22:50.885Z,16.51
2017-09-29T04:27:46.706Z,16.53
2017-09-29T04:32:43.053Z,16.50
2017-09-29T04:37:38.937Z,16.53
2017-09-29T04:42:35.901Z,16.57
2017-09-29T04:47:32.751Z,16.57
2017-09-29T04:52:28.116Z,16.60
2017-09-29T04:57:24.187Z,16.60
2017-09-29T05:02:20.075Z,16.65
2017-09-29T05:07:17.136Z,16.65
2017-09-29T05:12:13.708Z,16.61
2017-09-29T05:17:09.181Z,16.64
2017-09-29T05:22:05.022Z,16.50
2017-09-29T05:27:01.282Z,16.51
2017-09-29T05:31:57.159Z,16.64
2017-09-29T05:36:52.995Z,16.68
2017-09-29T05:41:48.904Z,16.54
2017-09-29T05:46:44.877Z,16.54
2017-09-29T05:51:40.914Z,16.64
2017-09-29T05:56:36.450Z,16.57
2017-09-29T06:01:32.952Z,16.66
2017-09-29T06:06:28.583Z,16.58
2017-09-29T06:11:25.511Z,16.69
2017-09-29T06:16:22.259Z,16.69
2017-09-29T06:21:17.843Z,16.64
2017-09-29T06:26:14.581Z,16.72
2017-09-29T06:31:11.086Z,16.75
2017-09-29T06:36:07.620Z,16.90
2017-09-29T06:41:03.800Z,16.79
2017-09-29T06:46:00.536Z,16.90
2017-09-29T06:50:56.052Z,16.93
2017-09-29T06:55:52.023Z,17.05
2017-09-29T07:00:47.993Z,17.02
2017-09-29T07:05:43.790Z,17.11
2017-09-29T07:10:39.958Z,17.26
2017-09-29T07:15:35.826Z,17.22
2017-09-29T07:20:32.340Z,17.27
2017-09-29T07:25:28.388Z,17.41
2017-09-29T07:30:26.208Z,17.39
2017-09-29T07:35:22.693Z,17.38
2017-09-29T07:40:19.797Z,17.56
2017-09-29T07:45:17.360Z,17.54
2017-09-29T07:50:13.718Z,17.56
2017-09-29T07:55:10.273Z,17.68
2017-09-29T08:00:05.970Z,17.63
2017-09-29T08:05:02.712Z,17.64
2017-09-29T08:09:58.358Z,17.59
2017-09-29T08:14:54.050Z,17.52
2017-09-29T08:19:50.164Z,17.67
2017-09-29T08:24:47.384Z,17.72
2017-09-29T08:29:44.181Z,17.94
2017-09-29T08:34:40.050Z,18.22
2017-09-29T08:39:37.398Z,18.25
2017-09-29T08:44:34.237Z,18.35
2017-09-29T08:49:30.034Z,18.33
2017-09-29T08:54:26.519Z,18.43
2017-09-29T08:59:22.602Z,18.68
2017-09-29T09:04:18.814Z,19.00
2017-09-29T09:09:15.128Z,19.19
2017-09-29T09:14:12.144Z,19.45
2017-09-29T09:19:07.941Z,19.56
2017-09-29T09:24:04.975Z,19.44
2017-09-29T09:29:00.881Z,19.64
2017-09-29T09:33:56.981Z,19.85
2017-09-29T09:38:53.047Z,19.99
2017-09-29T09:43:49.086Z,19.86
2017-09-29T09:48:45.456Z,19.84
2017-09-29T09:53:41.133Z,19.62
2017-09-29T09:58:36.808Z,19.62
2017-09-29T10:03:33.647Z,19.64
2017-09-29T10:08:29.342Z,19.63
2017-09-29T10:13:25.293Z,19.76
2017-09-29T10:18:22.019Z,19.86
2017-09-29T10:23:18.519Z,19.99
2017-09-29T10:28:14.770Z,20.18
2017-09-29T10:33:10.486Z,20.21
2017-09-29T10:38:07.677Z,20.21
2017-09-29T10:43:03.086Z,20.29
2017-09-29T10:47:59.465Z,20.32
2017-09-29T10:52:56.235Z,20.21
2017-09-29T10:57:52.161Z,20.32
2017-09-29T11:02:48.044Z,20.32
2017-09-29T11:07:44.751Z,20.85
2017-09-29T11:12:43.432Z,21.69
2017-09-29T11:17:39.648Z,21.85
2017-09-29T11:22:36.171Z,22.04
2017-09-29T11:27:32.818Z,22.39
2017-09-29T11:32:29.879Z,22.68
2017-09-29T11:37:25.545Z,22.32
2017-09-29T11:42:23.064Z,22.70
2017-09-29T11:47:18.962Z,22.39
2017-09-29T11:52:14.322Z,22.08
2017-09-29T11:57:09.650Z,21.52
2017-09-29T12:02:05.971Z,21.48
2017-09-29T12:07:02.377Z,21.25
2017-09-29T12:11:58.889Z,21.12
2017-09-29T12:16:55.400Z,21.02
2017-09-29T12:21:51.091Z,21.03
2017-09-29T12:26:47.163Z,21.11
2017-09-29T12:31:44.055Z,21.11
2017-09-29T12:36:39.582Z,21.14
2017-09-29T12:41:35.922Z,21.37
2017-09-29T12:46:31.876Z,21.46
2017-09-29T12:51:29.369Z,21.50
2017-09-29T12:56:26.888Z,21.60
2017-09-29T13:01:23.737Z,21.54
2017-09-29T13:06:19.609Z,21.69
2017-09-29T13:11:15.492Z,21.67
2017-09-29T13:16:11.370Z,21.55
2017-09-29T13:21:07.313Z,21.52
2017-09-29T13:26:03.324Z,21.54
2017-09-29T13:30:59.165Z,21.48
2017-09-29T13:35:55.951Z,21.62
2017-09-29T13:40:51.683Z,21.67
2017-09-29T13:45:47.565Z,21.76
2017-09-29T13:50:43.400Z,21.80
2017-09-29T13:55:39.467Z,21.76
2017-09-29T14:00:35.506Z,21.75
2017-09-29T14:05:32.669Z,21.73
2017-09-29T14:10:28.542Z,21.72
2017-09-29T14:15:24.323Z,21.66
2017-09-29T14:20:20.318Z,21.73
2017-09-29T14:25:16.088Z,21.64
2017-09-29T14:30:12.053Z,21.66
2017-09-29T14:35:08.242Z,21.57
2017-09-29T14:40:04.135Z,21.60
2017-09-29T14:45:00.430Z,21.64
2017-09-29T14:49:56.514Z,21.55
2017-09-29T14:54:53.038Z,21.51
2017-09-29T14:59:49.268Z,21.61
2017-09-29T15:04:45.127Z,21.58
2017-09-29T15:09:41.063Z,21.54
2017-09-29T15:14:36.910Z,21.55
2017-09-29T15:19:32.727Z,21.64
2017-09-29T15:24:28.576Z,21.64
2017-09-29T15:29:25.491Z,21.73
2017-09-29T15:34:21.102Z,21.62
2017-09-29T15:39:17.060Z,21.62
2017-09-29T15:44:12.847Z,21.51
2017-09-29T15:49:09.744Z,21.37
2017-09-29T15:54:05.245Z,21.27
2017-09-29T15:59:00.735Z,21.14
2017-09-29T16:03:56.532Z,20.99
2017-09-29T16:08:52.333Z,21.02
2017-09-29T16:13:48.153Z,20.90
2017-09-29T16:18:44.560Z,20.84
2017-09-29T16:23:40.558Z,20.81
2017-09-29T16:28:37.350Z,20.81
2017-09-29T16:33:32.958Z,20.72
2017-09-29T16:38:29.219Z,20.55
2017-09-29T16:43:24.928Z,20.41
2017-09-29T16:48:20.772Z,20.34
2017-09-29T16:53:16.563Z,20.32
2017-09-29T16:58:12.322Z,20.22
2017-09-29T17:03:08.005Z,20.16
2017-09-29T17:08:05.374Z,20.00
2017-09-29T17:13:01.985Z,20.00
2017-09-29T17:17:57.672Z,19.86
2017-09-29T17:22:54.337Z,19.82
2017-09-29T17:27:51.537Z,19.77
2017-09-29T17:32:48.082Z,19.70
2017-09-29T17:37:44.694Z,19.63
2017-09-29T17:42:40.260Z,19.59
2017-09-29T17:47:36.095Z,19.37
2017-09-29T17:52:32.092Z,19.34
2017-09-29T17:57:28.234Z,19.22
2017-09-29T18:02:26.094Z,19.24
2017-09-29T18:07:22.418Z,19.08
2017-09-29T18:12:18.472Z,19.00
2017-09-29T18:17:14.072Z,18.98
2017-09-29T18:22:11.330Z,18.99
2017-09-29T18:27:06.957Z,19.02
2017-09-29T18:32:03.276Z,19.02
2017-09-29T18:36:59.206Z,18.95
2017-09-29T18:41:55.038Z,18.96
2017-09-29T18:46:50.987Z,18.92
2017-09-29T18:51:46.768Z,18.83
2017-09-29T18:56:42.441Z,18.78
2017-09-29T19:01:38.686Z,18.75
2017-09-29T19:06:35.410Z,18.78
2017-09-29T19:11:31.241Z,18.80
2017-09-29T19:16:26.963Z,18.70
2017-09-29T19:21:23.014Z,18.71
2017-09-29T19:26:18.819Z,18.77
2017-09-29T19:31:14.718Z,18.68
2017-09-29T19:36:11.635Z,18.71
2017-09-29T19:41:07.229Z,18.86
2017-09-29T19:46:04.066Z,18.88
2017-09-29T19:50:59.798Z,18.88
2017-09-29T19:55:55.687Z,18.99
2017-09-29T20:00:51.558Z,18.99
2017-09-29T20:05:47.578Z,18.93
2017-09-29T20:10:43.554Z,18.96
2017-09-29T20:15:39.248Z,18.99
2017-09-29T20:20:35.270Z,18.96
2017-09-29T20:25:31.106Z,18.90
2017-09-29T20:30:27.497Z,18.83
2017-09-29T20:35:24.535Z,18.63
2017-09-29T20:40:20.150Z,18.70
2017-09-29T20:45:17.050Z,18.68
2017-09-29T20:50:12.860Z,18.65
2017-09-29T20:55:08.681Z,18.65
2017-09-29T21:00:04.532Z,18.59
2017-09-29T21:05:00.535Z,18.68
2017-09-29T21:09:56.242Z,18.65
2017-09-29T21:14:52.602Z,18.60
2017-09-29T21:19:48.461Z,18.62
2017-09-29T21:24:44.850Z,18.60
2017-09-29T21:29:41.821Z,18.60
2017-09-29T21:34:37.329Z,18.60
2017-09-29T21:39:33.320Z,18.56
2017-09-29T21:44:30.377Z,18.59
2017-09-29T21:49:25.835Z,18.60
2017-09-29T21:54:23.169Z,18.55
2017-09-29T21:59:19.347Z,18.58
2017-09-29T22:04:15.164Z,18.60
2017-09-29T22:09:10.876Z,18.59
2017-09-29T22:14:06.929Z,18.65
2017-09-29T22:19:02.791Z,18.65
2017-09-29T22:23:58.670Z,18.68
2017-09-29T22:28:55.454Z,18.65
2017-09-29T22:33:51.027Z,18.62
2017-09-29T22:38:48.113Z,18.60
2017-09-29T22:43:43.575Z,18.60
2017-09-29T22:48:39.324Z,18.60
2017-09-29T22:53:36.220Z,18.63
2017-09-29T22:58:31.899Z,18.56
2017-09-29T23:03:28.910Z,18.40
2017-09-29T23:08:24.457Z,18.41
2017-09-29T23:13:21.275Z,18.40
2017-09-29T23:18:17.997Z,18.38
2017-09-29T23:23:14.419Z,18.41
2017-09-29T23:28:10.307Z,18.26
2017-09-29T23:33:06.067Z,18.43
2017-09-29T23:38:02.931Z,18.38
2017-09-29T23:42:58.596Z,18.33
2017-09-29T23:47:54.802Z,18.34
2017-09-29T23:52:50.510Z,18.26
2017-09-29T23:57:46.715Z,18.26
